createdAt,value
2018-02-07T00:01:29.115Z,36.93
2018-02-07T00:03:55.711Z,35.63
2018-02-07T00:06:22.308Z,37.87
2018-02-07T00:08:48.912Z,34.13
2018-02-07T00:11:15.513Z,37.30
2018-02-07T00:13:42.119Z,36.73
2018-02-07T00:16:08.723Z,34.27
2018-02-07T00:18:35.318Z,33.63
2018-02-07T00:21:01.940Z,39.10
2018-02-07T00:23:28.543Z,38.80
2018-02-07T00:25:55.395Z,40.23
2018-02-07T00:28:21.991Z,39.70
2018-02-07T00:30:48.613Z,34.83
2018-02-07T00:33:15.204Z,37.47
2018-02-07T00:35:41.889Z,37.40
2018-02-07T00:38:08.480Z,37.00
2018-02-07T00:40:35.075Z,39.10
2018-02-07T00:43:01.671Z,39.57
2018-02-07T00:45:28.275Z,39.67
2018-02-07T00:47:54.938Z,40.80
2018-02-07T00:50:21.538Z,41.63
2018-02-07T00:52:48.136Z,38.60
2018-02-07T00:55:14.745Z,35.30
2018-02-07T00:57:41.347Z,37.53
2018-02-07T01:00:07.943Z,38.20
2018-02-07T01:02:34.924Z,35.60
2018-02-07T01:05:01.529Z,39.43
2018-02-07T01:07:28.137Z,37.30
2018-02-07T01:09:54.739Z,33.90
2018-02-07T01:12:21.341Z,37.07
2018-02-07T01:14:48.055Z,39.50
2018-02-07T01:17:14.664Z,40.10
2018-02-07T01:19:41.265Z,35.73
2018-02-07T01:22:07.875Z,34.90
2018-02-07T01:24:34.482Z,40.57
2018-02-07T01:27:01.103Z,37.30
2018-02-07T01:29:27.699Z,31.23
2018-02-07T01:31:54.290Z,36.20
2018-02-07T01:34:20.898Z,37.70
2018-02-07T01:36:47.496Z,45.70
2018-02-07T01:39:14.124Z,36.63
2018-02-07T01:41:40.712Z,36.77
2018-02-07T01:44:07.311Z,40.50
2018-02-07T01:46:33.920Z,39.37
2018-02-07T01:49:00.523Z,35.03
2018-02-07T01:51:27.487Z,39.17
2018-02-07T01:53:54.087Z,43.77
2018-02-07T01:56:20.699Z,38.73
2018-02-07T01:58:47.312Z,34.60
2018-02-07T02:01:13.907Z,37.50
2018-02-07T02:03:40.515Z,34.67
2018-02-07T02:06:07.133Z,40.53
2018-02-07T02:08:33.715Z,38.00
2018-02-07T02:11:00.344Z,39.53
2018-02-07T02:13:26.943Z,39.33
2018-02-07T02:15:53.599Z,42.33
2018-02-07T02:18:20.211Z,37.67
2018-02-07T02:20:46.815Z,36.00
2018-02-07T02:23:13.416Z,34.97
2018-02-07T02:25:40.022Z,41.40
2018-02-07T02:28:06.615Z,36.30
2018-02-07T02:30:33.235Z,32.97
2018-02-07T02:32:59.851Z,39.87
2018-02-07T02:35:26.456Z,35.17
2018-02-07T02:37:53.055Z,36.03
2018-02-07T02:40:19.660Z,34.83
2018-02-07T02:42:46.267Z,36.73
2018-02-07T02:45:12.883Z,34.40
2018-02-07T02:47:39.484Z,35.97
2018-02-07T02:50:06.099Z,37.10
2018-02-07T02:52:32.700Z,32.83
2018-02-07T02:54:59.295Z,36.37
2018-02-07T02:57:25.903Z,33.83
2018-02-07T02:59:52.499Z,37.47
2018-02-07T03:02:19.112Z,35.50
2018-02-07T03:04:45.703Z,35.37
2018-02-07T03:07:12.319Z,32.50
2018-02-07T03:09:38.921Z,33.70
2018-02-07T03:12:05.515Z,33.27
2018-02-07T03:14:32.119Z,33.33
2018-02-07T03:16:58.731Z,37.53
2018-02-07T03:19:25.346Z,34.90
2018-02-07T03:21:51.939Z,40.20
2018-02-07T03:24:18.556Z,38.50
2018-02-07T03:26:45.151Z,35.73
2018-02-07T03:29:11.829Z,41.30
2018-02-07T03:31:38.428Z,35.17
2018-02-07T03:34:05.028Z,36.03
2018-02-07T03:36:31.638Z,39.33
2018-02-07T03:38:58.240Z,37.30
2018-02-07T03:41:24.850Z,38.00
2018-02-07T03:43:51.443Z,34.83
2018-02-07T03:46:18.107Z,36.03
2018-02-07T03:48:44.712Z,39.53
2018-02-07T03:51:11.318Z,35.80
2018-02-07T03:53:37.944Z,38.13
2018-02-07T03:56:04.539Z,35.13
2018-02-07T03:58:31.143Z,39.73
2018-02-07T04:00:57.748Z,36.97
2018-02-07T04:03:24.343Z,39.53
2018-02-07T04:05:50.943Z,38.30
2018-02-07T04:08:17.556Z,38.27
2018-02-07T04:10:44.175Z,37.57
2018-02-07T04:13:10.775Z,36.37
2018-02-07T04:15:37.379Z,36.60
2018-02-07T04:18:04.015Z,34.70
2018-02-07T04:20:30.607Z,36.90
2018-02-07T04:22:57.224Z,40.30
2018-02-07T04:25:23.823Z,36.93
2018-02-07T04:27:50.440Z,39.03
2018-02-07T04:30:17.036Z,38.50
2018-02-07T04:32:43.632Z,41.60
2018-02-07T04:35:10.235Z,42.13
2018-02-07T04:37:36.835Z,37.77
2018-02-07T04:40:03.440Z,38.10
2018-02-07T04:42:30.039Z,36.90
2018-02-07T04:44:56.707Z,37.53
2018-02-07T04:47:23.315Z,37.27
2018-02-07T04:49:49.915Z,33.67
2018-02-07T04:52:16.519Z,35.73
2018-02-07T04:54:43.115Z,37.13
2018-02-07T04:57:09.719Z,39.43
2018-02-07T04:59:36.315Z,39.40
2018-02-07T05:02:02.932Z,34.17
2018-02-07T05:04:29.532Z,35.30
2018-02-07T05:06:56.127Z,36.23
2018-02-07T05:09:22.731Z,34.57
2018-02-07T05:11:49.332Z,36.60
2018-02-07T05:14:15.944Z,39.67
2018-02-07T05:16:42.539Z,37.27
2018-02-07T05:19:09.140Z,40.53
2018-02-07T05:21:35.743Z,37.37
2018-02-07T05:24:02.345Z,39.03
2018-02-07T05:26:28.951Z,38.67
2018-02-07T05:28:55.559Z,37.97
2018-02-07T05:31:22.162Z,47.00
2018-02-07T05:33:48.772Z,40.23
2018-02-07T05:36:15.373Z,44.60
2018-02-07T05:38:41.985Z,39.13
2018-02-07T05:41:08.583Z,35.53
2018-02-07T05:43:35.180Z,38.27
2018-02-07T05:46:01.783Z,37.90
2018-02-07T05:48:28.383Z,37.07
2018-02-07T05:50:54.995Z,42.33
2018-02-07T05:53:21.591Z,38.80
2018-02-07T05:55:48.215Z,41.07
2018-02-07T05:58:14.815Z,39.10
2018-02-07T06:00:41.411Z,46.30
2018-02-07T06:03:08.023Z,44.13
2018-02-07T06:05:34.624Z,41.40
2018-02-07T06:08:01.259Z,37.23
2018-02-07T06:10:27.854Z,38.50
2018-02-07T06:12:54.467Z,40.97
2018-02-07T06:15:21.071Z,45.43
2018-02-07T06:17:47.677Z,41.43
2018-02-07T06:20:14.280Z,46.30
2018-02-07T06:22:40.884Z,44.30
2018-02-07T06:25:07.500Z,41.37
2018-02-07T06:27:34.094Z,46.10
2018-02-07T06:30:00.701Z,41.90
2018-02-07T06:32:27.309Z,41.27
2018-02-07T06:34:53.907Z,41.60
2018-02-07T06:37:20.520Z,40.33
2018-02-07T06:39:47.119Z,41.47
2018-02-07T06:42:13.724Z,41.87
2018-02-07T06:44:40.362Z,42.43
2018-02-07T06:47:06.927Z,42.47
2018-02-07T06:49:33.531Z,43.77
2018-02-07T06:52:00.131Z,42.80
2018-02-07T06:54:26.740Z,38.53
2018-02-07T06:56:53.340Z,42.13
2018-02-07T06:59:19.938Z,40.27
2018-02-07T07:01:46.549Z,40.87
2018-02-07T07:04:13.140Z,42.13
2018-02-07T07:06:39.758Z,43.17
2018-02-07T07:09:06.355Z,45.03
2018-02-07T07:11:32.955Z,42.93
2018-02-07T07:13:59.559Z,40.73
2018-02-07T07:16:26.206Z,42.70
2018-02-07T07:18:52.782Z,39.30
2018-02-07T07:21:19.374Z,40.03
2018-02-07T07:23:46.000Z,44.80
2018-02-07T07:26:12.604Z,42.23
2018-02-07T07:28:39.208Z,39.33
2018-02-07T07:31:05.815Z,40.83
2018-02-07T07:33:32.419Z,42.90
2018-02-07T07:35:59.183Z,42.53
2018-02-07T07:38:27.748Z,45.40
2018-02-07T07:40:54.582Z,44.73
2018-02-07T07:43:21.208Z,40.67
2018-02-07T07:45:47.821Z,42.70
2018-02-07T07:48:14.423Z,45.97
2018-02-07T07:50:41.023Z,42.23
2018-02-07T07:53:07.636Z,40.83
2018-02-07T07:55:34.236Z,42.47
2018-02-07T07:58:00.871Z,48.77
2018-02-07T08:00:27.472Z,41.57
2018-02-07T08:02:54.072Z,42.03
2018-02-07T08:05:20.672Z,44.20
2018-02-07T08:07:47.271Z,44.87
2018-02-07T08:10:13.879Z,39.97
2018-02-07T08:12:40.479Z,46.87
2018-02-07T08:15:07.096Z,43.23
2018-02-07T08:17:33.691Z,43.10
2018-02-07T08:20:00.291Z,42.20
2018-02-07T08:22:26.899Z,45.27
2018-02-07T08:24:53.503Z,41.53
2018-02-07T08:27:20.107Z,42.80
2018-02-07T08:29:46.703Z,42.17
2018-02-07T08:32:13.331Z,40.80
2018-02-07T08:34:39.936Z,41.07
2018-02-07T08:37:06.535Z,43.13
2018-02-07T08:39:33.431Z,42.33
2018-02-07T08:42:00.045Z,47.40
2018-02-07T08:44:26.635Z,43.03
2018-02-07T08:46:53.236Z,41.47
2018-02-07T08:49:19.851Z,46.30
2018-02-07T08:51:46.455Z,46.47
2018-02-07T08:54:13.087Z,44.70
2018-02-07T08:56:39.695Z,43.30
2018-02-07T08:59:06.291Z,47.40
2018-02-07T09:01:32.928Z,42.60
2018-02-07T09:03:59.530Z,45.57
2018-02-07T09:06:26.123Z,42.90
2018-02-07T09:08:52.736Z,42.10
2018-02-07T09:11:19.338Z,46.30
2018-02-07T09:13:45.944Z,45.87
2018-02-07T09:16:12.543Z,46.97
2018-02-07T09:18:39.139Z,41.77
2018-02-07T09:21:07.378Z,50.50
2018-02-07T09:23:33.971Z,46.00
2018-02-07T09:26:00.576Z,44.97
2018-02-07T09:28:27.175Z,44.43
2018-02-07T09:30:53.825Z,46.67
2018-02-07T09:33:20.407Z,46.87
2018-02-07T09:35:47.003Z,48.43
2018-02-07T09:38:13.609Z,45.83
2018-02-07T09:40:40.208Z,46.50
2018-02-07T09:43:06.811Z,45.50
2018-02-07T09:45:33.407Z,47.60
2018-02-07T09:48:00.025Z,46.90
2018-02-07T09:50:26.624Z,42.97
2018-02-07T09:52:53.219Z,49.47
2018-02-07T09:55:19.820Z,47.40
2018-02-07T09:57:46.419Z,48.27
2018-02-07T10:00:13.023Z,49.83
2018-02-07T10:02:39.622Z,47.70
2018-02-07T10:05:06.331Z,48.73
2018-02-07T10:07:32.920Z,49.63
2018-02-07T10:09:59.510Z,48.40
2018-02-07T10:12:26.119Z,49.10
2018-02-07T10:14:52.716Z,49.60
2018-02-07T10:17:19.323Z,48.60
2018-02-07T10:19:46.148Z,49.97
2018-02-07T10:22:12.807Z,48.33
2018-02-07T10:24:39.411Z,46.97
2018-02-07T10:27:06.016Z,51.27
2018-02-07T10:29:32.610Z,55.20
2018-02-07T10:31:59.226Z,53.80
2018-02-07T10:34:25.836Z,54.07
2018-02-07T10:36:52.441Z,50.80
2018-02-07T10:39:19.048Z,49.73
2018-02-07T10:41:45.648Z,52.63
2018-02-07T10:44:12.247Z,49.63
2018-02-07T10:46:38.851Z,57.90
2018-02-07T10:49:05.442Z,62.27
2018-02-07T10:51:32.051Z,158.27
2018-02-07T10:53:58.657Z,105.53
2018-02-07T10:56:25.319Z,76.90
2018-02-07T10:58:51.922Z,62.47
2018-02-07T11:01:18.529Z,56.80
2018-02-07T11:03:45.131Z,84.83
2018-02-07T11:06:11.734Z,112.07
2018-02-07T11:08:38.339Z,112.77
2018-02-07T11:11:04.940Z,62.83
2018-02-07T11:13:31.555Z,90.47
2018-02-07T11:15:58.148Z,59.30
2018-02-07T11:18:24.754Z,65.70
2018-02-07T11:20:51.356Z,54.83
2018-02-07T11:23:17.951Z,55.57
2018-02-07T11:25:44.580Z,53.50
2018-02-07T11:28:11.210Z,55.17
2018-02-07T11:30:37.775Z,52.77
2018-02-07T11:33:04.394Z,55.13
2018-02-07T11:35:30.998Z,50.40
2018-02-07T11:37:57.613Z,50.03
2018-02-07T11:40:24.210Z,48.93
2018-02-07T11:42:50.828Z,49.17
2018-02-07T11:45:17.427Z,47.93
2018-02-07T11:47:44.032Z,52.73
2018-02-07T11:50:10.635Z,51.47
2018-02-07T11:52:37.239Z,53.53
2018-02-07T11:55:03.875Z,53.77
2018-02-07T11:57:30.475Z,51.50
2018-02-07T11:59:57.075Z,48.70
2018-02-07T12:02:23.686Z,52.20
2018-02-07T12:04:50.287Z,52.67
2018-02-07T12:07:16.903Z,47.57
2018-02-07T12:09:43.511Z,52.20
2018-02-07T12:12:10.130Z,52.00
2018-02-07T12:14:36.723Z,54.73
2018-02-07T12:17:03.340Z,51.70
2018-02-07T12:19:29.955Z,58.50
2018-02-07T12:21:56.586Z,60.97
2018-02-07T12:24:23.152Z,54.97
2018-02-07T12:26:49.753Z,55.40
2018-02-07T12:29:16.347Z,50.00
2018-02-07T12:31:42.952Z,53.83
2018-02-07T12:34:09.548Z,53.67
2018-02-07T12:36:36.164Z,52.47
2018-02-07T12:39:02.762Z,54.03
2018-02-07T12:41:29.359Z,55.27
2018-02-07T12:43:55.968Z,51.43
2018-02-07T12:46:22.563Z,50.53
2018-02-07T12:48:49.179Z,55.07
2018-02-07T12:51:15.780Z,56.80
2018-02-07T12:53:42.395Z,51.37
2018-02-07T12:56:09.004Z,53.23
2018-02-07T12:58:35.603Z,56.10
2018-02-07T13:01:02.208Z,68.27
2018-02-07T13:03:28.808Z,58.30
2018-02-07T13:05:55.419Z,60.70
2018-02-07T13:08:22.021Z,59.03
2018-02-07T13:10:48.615Z,57.30
2018-02-07T13:13:15.229Z,60.67
2018-02-07T13:15:41.828Z,61.40
2018-02-07T13:18:08.431Z,61.07
2018-02-07T13:20:35.027Z,62.80
2018-02-07T13:23:01.637Z,71.47
2018-02-07T13:25:28.232Z,65.43
2018-02-07T13:27:54.831Z,69.20
2018-02-07T13:30:21.435Z,68.43
2018-02-07T13:32:48.037Z,60.53
2018-02-07T13:35:14.642Z,64.23
2018-02-07T13:37:41.239Z,61.63
2018-02-07T13:40:07.856Z,59.37
2018-02-07T13:42:34.455Z,64.60
2018-02-07T13:45:01.055Z,62.90
2018-02-07T13:47:27.659Z,60.00
2018-02-07T13:49:54.260Z,61.60
2018-02-07T13:52:20.864Z,65.83
2018-02-07T13:54:47.464Z,61.73
2018-02-07T13:57:14.108Z,61.37
2018-02-07T13:59:40.703Z,65.73
2018-02-07T14:02:07.299Z,62.07
2018-02-07T14:04:33.900Z,58.87
2018-02-07T14:07:00.500Z,57.60
2018-02-07T14:09:27.111Z,63.93
2018-02-07T14:11:53.707Z,56.70
2018-02-07T14:14:20.335Z,54.83
2018-02-07T14:16:46.955Z,72.03
2018-02-07T14:19:13.567Z,56.47
2018-02-07T14:21:40.166Z,57.90
2018-02-07T14:24:07.911Z,54.83
2018-02-07T14:26:34.524Z,53.10
2018-02-07T14:29:01.120Z,55.43
2018-02-07T14:31:27.719Z,55.30
2018-02-07T14:33:54.340Z,54.40
2018-02-07T14:36:20.941Z,55.50
2018-02-07T14:38:47.551Z,54.63
2018-02-07T14:41:14.148Z,55.83
2018-02-07T14:43:40.769Z,52.63
2018-02-07T14:46:07.367Z,57.27
2018-02-07T14:48:33.963Z,52.60
2018-02-07T14:51:00.570Z,57.03
2018-02-07T14:53:27.167Z,59.17
2018-02-07T14:55:53.772Z,58.37
2018-02-07T14:58:20.381Z,55.27
2018-02-07T15:00:47.028Z,56.70
2018-02-07T15:03:13.627Z,57.50
2018-02-07T15:05:40.227Z,60.37
2018-02-07T15:08:06.849Z,59.30
2018-02-07T15:10:33.447Z,57.50
2018-02-07T15:13:00.058Z,57.20
2018-02-07T15:15:26.653Z,60.37
2018-02-07T15:17:53.263Z,58.07
2018-02-07T15:20:19.861Z,55.93
2018-02-07T15:22:46.488Z,57.90
2018-02-07T15:25:13.092Z,63.60
2018-02-07T15:27:39.687Z,62.90
2018-02-07T15:30:06.294Z,64.00
2018-02-07T15:32:32.903Z,61.83
2018-02-07T15:34:59.823Z,58.70
2018-02-07T15:37:26.423Z,64.10
2018-02-07T15:39:53.028Z,66.17
2018-02-07T15:42:19.639Z,56.20
2018-02-07T15:44:46.240Z,59.10
2018-02-07T15:47:12.859Z,59.37
2018-02-07T15:49:39.467Z,55.03
2018-02-07T15:52:06.088Z,58.67
2018-02-07T15:54:32.687Z,61.67
2018-02-07T15:56:59.293Z,63.03
2018-02-07T15:59:25.895Z,61.50
2018-02-07T16:01:52.507Z,62.57
2018-02-07T16:04:19.139Z,60.23
2018-02-07T16:06:45.719Z,55.20
2018-02-07T16:09:12.340Z,53.73
2018-02-07T16:11:38.943Z,53.40
2018-02-07T16:14:05.543Z,53.40
2018-02-07T16:16:32.151Z,56.07
2018-02-07T16:18:58.747Z,61.90
2018-02-07T16:21:25.355Z,60.37
2018-02-07T16:23:51.955Z,58.13
2018-02-07T16:26:18.572Z,57.10
2018-02-07T16:28:45.178Z,56.07
2018-02-07T16:31:11.780Z,58.30
2018-02-07T16:33:38.386Z,54.33
2018-02-07T16:36:04.990Z,53.97
2018-02-07T16:38:31.594Z,59.07
2018-02-07T16:40:58.209Z,55.80
2018-02-07T16:43:24.837Z,54.43
2018-02-07T16:45:51.431Z,55.87
2018-02-07T16:48:18.060Z,56.10
2018-02-07T16:50:44.661Z,61.73
2018-02-07T16:53:11.269Z,54.60
2018-02-07T16:55:37.889Z,66.17
2018-02-07T16:58:04.483Z,65.20
2018-02-07T17:00:31.083Z,71.27
2018-02-07T17:02:57.688Z,70.70
2018-02-07T17:05:24.287Z,74.57
2018-02-07T17:07:50.900Z,65.70
2018-02-07T17:10:17.504Z,62.53
2018-02-07T17:12:45.104Z,58.93
2018-02-07T17:15:11.711Z,62.10
2018-02-07T17:17:39.437Z,61.07
2018-02-07T17:20:06.055Z,56.73
2018-02-07T17:22:32.653Z,55.33
2018-02-07T17:24:59.249Z,55.97
2018-02-07T17:27:25.884Z,56.67
2018-02-07T17:29:52.490Z,59.47
2018-02-07T17:32:19.092Z,55.97
2018-02-07T17:34:45.699Z,52.43
2018-02-07T17:37:12.296Z,54.93
2018-02-07T17:39:38.914Z,56.80
2018-02-07T17:42:05.495Z,55.03
2018-02-07T17:44:32.103Z,55.23
2018-02-07T17:46:58.700Z,55.40
2018-02-07T17:49:25.296Z,52.17
2018-02-07T17:51:51.901Z,57.63
2018-02-07T17:54:18.499Z,59.70
2018-02-07T17:56:45.114Z,55.37
2018-02-07T17:59:11.728Z,60.90
2018-02-07T18:01:38.729Z,55.07
2018-02-07T18:04:05.328Z,57.80
2018-02-07T18:06:31.928Z,55.37
2018-02-07T18:08:58.539Z,62.73
2018-02-07T18:11:25.143Z,58.77
2018-02-07T18:13:51.833Z,56.50
2018-02-07T18:16:18.427Z,58.33
2018-02-07T18:18:45.043Z,55.87
2018-02-07T18:21:11.643Z,53.33
2018-02-07T18:23:38.241Z,58.37
2018-02-07T18:26:04.843Z,55.30
2018-02-07T18:28:31.697Z,55.50
2018-02-07T18:31:00.808Z,55.60
2018-02-07T18:33:28.893Z,54.20
2018-02-07T18:35:58.492Z,54.30
2018-02-07T18:38:25.298Z,56.37
2018-02-07T18:40:51.944Z,57.10
2018-02-07T18:43:18.540Z,55.87
2018-02-07T18:45:45.148Z,55.07
2018-02-07T18:48:11.751Z,52.17
2018-02-07T18:50:38.355Z,51.27
2018-02-07T18:53:04.964Z,60.87
2018-02-07T18:55:31.563Z,52.73
2018-02-07T18:57:58.191Z,50.30
2018-02-07T19:00:24.787Z,53.80
2018-02-07T19:02:51.380Z,56.10
2018-02-07T19:05:17.994Z,51.97
2018-02-07T19:07:44.588Z,56.10
2018-02-07T19:10:11.200Z,52.77
2018-02-07T19:12:37.799Z,50.93
2018-02-07T19:15:04.437Z,48.40
2018-02-07T19:17:31.864Z,50.17
2018-02-07T19:19:58.576Z,52.60
2018-02-07T19:22:25.168Z,49.80
2018-02-07T19:24:51.755Z,53.80
2018-02-07T19:27:18.369Z,48.50
2018-02-07T19:29:44.959Z,50.77
2018-02-07T19:32:11.568Z,52.70
2018-02-07T19:34:38.167Z,48.50
2018-02-07T19:37:04.798Z,48.83
2018-02-07T19:39:31.396Z,45.87
2018-02-07T19:41:57.995Z,47.43
2018-02-07T19:44:24.603Z,47.80
2018-02-07T19:46:51.203Z,48.60
2018-02-07T19:49:17.849Z,50.23
2018-02-07T19:51:44.461Z,55.20
2018-02-07T19:54:11.062Z,53.37
2018-02-07T19:56:37.666Z,55.40
2018-02-07T19:59:04.267Z,58.13
2018-02-07T20:01:30.896Z,55.50
2018-02-07T20:03:57.498Z,57.27
2018-02-07T20:06:24.095Z,61.80
2018-02-07T20:08:50.712Z,69.50
2018-02-07T20:11:17.311Z,57.67
2018-02-07T20:13:43.931Z,54.90
2018-02-07T20:16:10.524Z,55.03
2018-02-07T20:18:37.123Z,54.40
2018-02-07T20:21:03.773Z,54.23
2018-02-07T20:23:30.359Z,53.30
2018-02-07T20:25:56.983Z,56.20
2018-02-07T20:28:23.589Z,55.07
2018-02-07T20:30:50.207Z,51.00
2018-02-07T20:33:16.823Z,51.17
2018-02-07T20:35:43.440Z,50.93
2018-02-07T20:38:10.088Z,46.00
2018-02-07T20:40:36.669Z,48.00
2018-02-07T20:43:03.295Z,48.80
2018-02-07T20:45:29.895Z,46.90
2018-02-07T20:47:56.540Z,51.07
2018-02-07T20:50:23.144Z,51.33
2018-02-07T20:52:49.743Z,50.47
2018-02-07T20:55:16.384Z,54.30
2018-02-07T20:57:42.984Z,48.70
2018-02-07T21:00:09.590Z,49.47
2018-02-07T21:02:36.202Z,47.40
2018-02-07T21:05:02.804Z,49.13
2018-02-07T21:07:30.344Z,49.90
2018-02-07T21:09:56.954Z,48.40
2018-02-07T21:12:23.659Z,46.23
2018-02-07T21:14:50.259Z,48.60
2018-02-07T21:17:16.856Z,49.83
2018-02-07T21:19:43.463Z,47.93
2018-02-07T21:22:10.064Z,49.00
2018-02-07T21:24:36.700Z,49.00
2018-02-07T21:27:03.300Z,47.53
2018-02-07T21:29:29.923Z,41.83
2018-02-07T21:31:56.535Z,43.13
2018-02-07T21:34:23.138Z,46.10
2018-02-07T21:36:49.745Z,46.13
2018-02-07T21:39:16.348Z,45.73
2018-02-07T21:41:42.957Z,44.83
2018-02-07T21:44:09.555Z,45.90
2018-02-07T21:46:36.174Z,48.03
2018-02-07T21:49:02.768Z,45.70
2018-02-07T21:51:29.372Z,47.03
2018-02-07T21:53:55.971Z,46.23
2018-02-07T21:56:22.575Z,44.80
2018-02-07T21:58:49.184Z,46.83
2018-02-07T22:01:15.792Z,43.63
2018-02-07T22:03:42.423Z,47.73
2018-02-07T22:06:09.015Z,45.03
2018-02-07T22:08:35.615Z,43.77
2018-02-07T22:11:02.220Z,44.13
2018-02-07T22:13:28.825Z,44.77
2018-02-07T22:15:55.442Z,43.83
2018-02-07T22:18:22.041Z,42.53
2018-02-07T22:20:48.639Z,42.93
2018-02-07T22:23:15.259Z,44.00
2018-02-07T22:25:41.859Z,38.63
2018-02-07T22:28:08.472Z,42.00
2018-02-07T22:30:35.064Z,41.63
2018-02-07T22:33:01.693Z,46.83
2018-02-07T22:35:28.283Z,45.03
2018-02-07T22:37:54.879Z,41.10
2018-02-07T22:40:21.487Z,39.83
2018-02-07T22:42:48.092Z,40.67
2018-02-07T22:45:14.704Z,41.20
2018-02-07T22:47:41.300Z,43.60
2018-02-07T22:50:07.920Z,39.43
2018-02-07T22:52:34.515Z,38.70
2018-02-07T22:55:01.112Z,40.50
2018-02-07T22:57:27.714Z,39.27
2018-02-07T22:59:54.312Z,43.07
2018-02-07T23:02:20.915Z,37.73
2018-02-07T23:04:47.515Z,41.87
2018-02-07T23:07:14.131Z,42.03
2018-02-07T23:09:40.732Z,40.80
2018-02-07T23:12:07.327Z,40.63
2018-02-07T23:14:33.927Z,40.33
2018-02-07T23:17:00.524Z,42.43
2018-02-07T23:19:27.132Z,42.80
2018-02-07T23:21:53.726Z,42.50
2018-02-07T23:24:20.348Z,38.77
2018-02-07T23:26:46.949Z,44.37
2018-02-07T23:29:13.547Z,43.13
2018-02-07T23:31:40.157Z,42.67
2018-02-07T23:34:06.755Z,36.30
2018-02-07T23:36:33.363Z,43.23
2018-02-07T23:38:59.964Z,39.70
2018-02-07T23:41:26.575Z,40.47
2018-02-07T23:43:53.171Z,37.60
2018-02-07T23:46:19.979Z,41.70
2018-02-07T23:48:46.572Z,39.87
2018-02-07T23:51:13.176Z,41.40
2018-02-07T23:53:39.785Z,44.20
2018-02-07T23:56:06.379Z,42.93
2018-02-07T23:58:32.983Z,41.37
